sensor_id;sensor_type;location;lat;lon;timestamp;P1;durP1;ratioP1;P2;durP2;ratioP2
70388;SDS011;58659;49.050;8.530;2024-03-29T00:01:00;2.00;;;0.90;;
70388;SDS011;58659;49.050;8.530;2024-03-29T00:03:27;1.37;;;1.00;;
70388;SDS011;58659;49.050;8.530;2024-03-29T00:05:52;1.37;;;1.00;;
70388;SDS011;58659;49.050;8.530;2024-03-29T00:08:17;1.30;;;0.80;;
70388;SDS011;58659;49.050;8.530;2024-03-29T00:10:42;3.30;;;1.10;;
70388;SDS011;58659;49.050;8.530;2024-03-29T00:13:08;2.03;;;1.00;;
70388;SDS011;58659;49.050;8.530;2024-03-29T00:15:33;4.53;;;1.23;;
70388;SDS011;58659;49.050;8.530;2024-03-29T00:17:59;1.10;;;0.83;;
70388;SDS011;58659;49.050;8.530;2024-03-29T00:20:24;1.37;;;0.93;;
70388;SDS011;58659;49.050;8.530;2024-03-29T00:22:54;1.70;;;1.00;;
70388;SDS011;58659;49.050;8.530;2024-03-29T00:25:19;4.00;;;1.03;;
70388;SDS011;58659;49.050;8.530;2024-03-29T00:27:45;3.83;;;1.27;;
70388;SDS011;58659;49.050;8.530;2024-03-29T00:30:10;2.80;;;1.07;;
70388;SDS011;58659;49.050;8.530;2024-03-29T00:32:36;1.50;;;1.23;;
70388;SDS011;58659;49.050;8.530;2024-03-29T00:35:02;1.07;;;0.97;;
70388;SDS011;58659;49.050;8.530;2024-03-29T00:37:27;2.43;;;1.17;;
70388;SDS011;58659;49.050;8.530;2024-03-29T00:39:52;2.70;;;1.00;;
70388;SDS011;58659;49.050;8.530;2024-03-29T00:42:18;1.63;;;0.97;;
70388;SDS011;58659;49.050;8.530;2024-03-29T00:44:44;0.80;;;0.80;;
70388;SDS011;58659;49.050;8.530;2024-03-29T00:47:10;3.80;;;1.53;;
70388;SDS011;58659;49.050;8.530;2024-03-29T00:49:36;1.00;;;0.83;;
70388;SDS011;58659;49.050;8.530;2024-03-29T00:52:01;1.40;;;1.00;;
70388;SDS011;58659;49.050;8.530;2024-03-29T00:54:28;1.80;;;1.13;;
70388;SDS011;58659;49.050;8.530;2024-03-29T00:56:54;2.43;;;1.10;;
70388;SDS011;58659;49.050;8.530;2024-03-29T00:59:19;1.27;;;1.03;;
70388;SDS011;58659;49.050;8.530;2024-03-29T01:01:45;2.43;;;0.90;;
70388;SDS011;58659;49.050;8.530;2024-03-29T01:04:10;1.27;;;1.17;;
70388;SDS011;58659;49.050;8.530;2024-03-29T01:06:37;2.87;;;1.10;;
70388;SDS011;58659;49.050;8.530;2024-03-29T01:09:02;1.50;;;0.83;;
70388;SDS011;58659;49.050;8.530;2024-03-29T01:11:28;3.97;;;1.30;;
70388;SDS011;58659;49.050;8.530;2024-03-29T01:13:54;3.00;;;1.10;;
70388;SDS011;58659;49.050;8.530;2024-03-29T01:16:20;2.07;;;1.00;;
70388;SDS011;58659;49.050;8.530;2024-03-29T01:18:45;2.40;;;1.00;;
70388;SDS011;58659;49.050;8.530;2024-03-29T01:21:12;3.50;;;1.10;;
70388;SDS011;58659;49.050;8.530;2024-03-29T01:23:37;2.53;;;0.80;;
70388;SDS011;58659;49.050;8.530;2024-03-29T01:26:02;0.80;;;0.77;;
70388;SDS011;58659;49.050;8.530;2024-03-29T01:28:29;2.00;;;1.03;;
70388;SDS011;58659;49.050;8.530;2024-03-29T01:30:54;1.20;;;0.97;;
70388;SDS011;58659;49.050;8.530;2024-03-29T01:33:20;1.13;;;1.03;;
70388;SDS011;58659;49.050;8.530;2024-03-29T01:35:46;0.97;;;0.90;;
70388;SDS011;58659;49.050;8.530;2024-03-29T01:38:11;1.63;;;1.13;;
70388;SDS011;58659;49.050;8.530;2024-03-29T01:40:36;3.33;;;1.17;;
70388;SDS011;58659;49.050;8.530;2024-03-29T01:43:02;0.90;;;0.90;;
70388;SDS011;58659;49.050;8.530;2024-03-29T01:45:27;2.60;;;1.20;;
70388;SDS011;58659;49.050;8.530;2024-03-29T01:47:54;0.97;;;0.90;;
70388;SDS011;58659;49.050;8.530;2024-03-29T01:50:20;0.80;;;0.80;;
70388;SDS011;58659;49.050;8.530;2024-03-29T01:52:45;1.00;;;0.90;;
70388;SDS011;58659;49.050;8.530;2024-03-29T01:55:11;0.90;;;0.83;;
70388;SDS011;58659;49.050;8.530;2024-03-29T01:57:37;1.23;;;0.90;;
70388;SDS011;58659;49.050;8.530;2024-03-29T02:00:03;1.03;;;0.90;;
70388;SDS011;58659;49.050;8.530;2024-03-29T02:02:30;1.53;;;0.90;;
70388;SDS011;58659;49.050;8.530;2024-03-29T02:04:57;1.67;;;1.00;;
70388;SDS011;58659;49.050;8.530;2024-03-29T02:07:22;2.33;;;0.90;;
70388;SDS011;58659;49.050;8.530;2024-03-29T02:09:48;1.37;;;0.93;;
70388;SDS011;58659;49.050;8.530;2024-03-29T02:12:14;0.90;;;0.90;;
70388;SDS011;58659;49.050;8.530;2024-03-29T02:14:39;3.47;;;0.80;;
70388;SDS011;58659;49.050;8.530;2024-03-29T02:17:06;0.97;;;0.97;;
70388;SDS011;58659;49.050;8.530;2024-03-29T02:19:31;1.23;;;1.07;;
70388;SDS011;58659;49.050;8.530;2024-03-29T02:21:57;1.00;;;0.90;;
70388;SDS011;58659;49.050;8.530;2024-03-29T02:24:25;4.90;;;1.83;;
70388;SDS011;58659;49.050;8.530;2024-03-29T02:26:51;1.30;;;0.90;;
70388;SDS011;58659;49.050;8.530;2024-03-29T02:29:19;4.40;;;1.13;;
70388;SDS011;58659;49.050;8.530;2024-03-29T02:31:45;2.77;;;0.90;;
70388;SDS011;58659;49.050;8.530;2024-03-29T02:34:10;1.70;;;1.00;;
70388;SDS011;58659;49.050;8.530;2024-03-29T02:36:35;1.97;;;1.00;;
70388;SDS011;58659;49.050;8.530;2024-03-29T02:39:01;2.20;;;1.00;;
70388;SDS011;58659;49.050;8.530;2024-03-29T02:41:27;1.30;;;0.90;;
70388;SDS011;58659;49.050;8.530;2024-03-29T02:43:54;2.03;;;0.80;;
70388;SDS011;58659;49.050;8.530;2024-03-29T02:46:20;5.10;;;1.33;;
70388;SDS011;58659;49.050;8.530;2024-03-29T02:48:45;0.83;;;0.80;;
70388;SDS011;58659;49.050;8.530;2024-03-29T02:51:11;3.63;;;1.00;;
70388;SDS011;58659;49.050;8.530;2024-03-29T02:53:36;4.57;;;0.80;;
70388;SDS011;58659;49.050;8.530;2024-03-29T02:56:01;3.47;;;1.00;;
70388;SDS011;58659;49.050;8.530;2024-03-29T02:58:27;1.37;;;0.90;;
70388;SDS011;58659;49.050;8.530;2024-03-29T03:00:52;1.63;;;1.00;;
70388;SDS011;58659;49.050;8.530;2024-03-29T03:03:18;1.90;;;0.90;;
70388;SDS011;58659;49.050;8.530;2024-03-29T03:05:43;1.40;;;0.80;;
70388;SDS011;58659;49.050;8.530;2024-03-29T03:08:08;1.77;;;1.10;;
70388;SDS011;58659;49.050;8.530;2024-03-29T03:10:52;1.00;;;0.87;;
70388;SDS011;58659;49.050;8.530;2024-03-29T03:13:27;2.17;;;1.07;;
70388;SDS011;58659;49.050;8.530;2024-03-29T03:15:53;1.67;;;1.00;;
70388;SDS011;58659;49.050;8.530;2024-03-29T03:18:18;0.70;;;0.70;;
70388;SDS011;58659;49.050;8.530;2024-03-29T03:20:50;1.90;;;1.00;;
70388;SDS011;58659;49.050;8.530;2024-03-29T03:23:18;3.43;;;1.13;;
70388;SDS011;58659;49.050;8.530;2024-03-29T03:25:45;1.50;;;1.03;;
70388;SDS011;58659;49.050;8.530;2024-03-29T03:28:11;0.97;;;0.97;;
70388;SDS011;58659;49.050;8.530;2024-03-29T03:30:39;1.70;;;1.20;;
70388;SDS011;58659;49.050;8.530;2024-03-29T03:33:05;2.47;;;1.10;;
70388;SDS011;58659;49.050;8.530;2024-03-29T03:35:31;1.13;;;0.90;;
70388;SDS011;58659;49.050;8.530;2024-03-29T03:37:56;2.30;;;1.00;;
70388;SDS011;58659;49.050;8.530;2024-03-29T03:40:22;1.10;;;0.90;;
70388;SDS011;58659;49.050;8.530;2024-03-29T03:42:47;2.27;;;1.03;;
70388;SDS011;58659;49.050;8.530;2024-03-29T03:45:12;1.13;;;0.97;;
70388;SDS011;58659;49.050;8.530;2024-03-29T03:47:38;2.10;;;1.40;;
70388;SDS011;58659;49.050;8.530;2024-03-29T03:50:03;0.97;;;0.90;;
70388;SDS011;58659;49.050;8.530;2024-03-29T03:52:29;1.07;;;0.90;;
70388;SDS011;58659;49.050;8.530;2024-03-29T03:54:54;0.80;;;0.80;;
70388;SDS011;58659;49.050;8.530;2024-03-29T03:57:20;0.90;;;0.90;;
70388;SDS011;58659;49.050;8.530;2024-03-29T03:59:45;1.00;;;0.80;;
70388;SDS011;58659;49.050;8.530;2024-03-29T04:02:10;1.00;;;0.90;;
70388;SDS011;58659;49.050;8.530;2024-03-29T04:04:35;2.07;;;0.93;;
70388;SDS011;58659;49.050;8.530;2024-03-29T04:07:01;0.73;;;0.73;;
70388;SDS011;58659;49.050;8.530;2024-03-29T04:09:27;2.87;;;0.90;;
70388;SDS011;58659;49.050;8.530;2024-03-29T04:11:52;0.70;;;0.70;;
70388;SDS011;58659;49.050;8.530;2024-03-29T04:14:17;1.27;;;0.87;;
70388;SDS011;58659;49.050;8.530;2024-03-29T04:16:43;1.40;;;0.80;;
70388;SDS011;58659;49.050;8.530;2024-03-29T04:19:08;4.37;;;0.80;;
70388;SDS011;58659;49.050;8.530;2024-03-29T04:21:33;0.90;;;0.90;;
70388;SDS011;58659;49.050;8.530;2024-03-29T04:23:59;2.10;;;0.80;;
70388;SDS011;58659;49.050;8.530;2024-03-29T04:26:24;0.90;;;0.70;;
70388;SDS011;58659;49.050;8.530;2024-03-29T04:28:49;1.57;;;1.00;;
70388;SDS011;58659;49.050;8.530;2024-03-29T04:31:14;0.80;;;0.80;;
70388;SDS011;58659;49.050;8.530;2024-03-29T04:33:40;1.00;;;0.90;;
70388;SDS011;58659;49.050;8.530;2024-03-29T04:36:05;1.10;;;1.00;;
70388;SDS011;58659;49.050;8.530;2024-03-29T04:38:31;1.40;;;0.73;;
70388;SDS011;58659;49.050;8.530;2024-03-29T04:40:57;2.10;;;0.90;;
70388;SDS011;58659;49.050;8.530;2024-03-29T04:43:27;0.67;;;0.67;;
70388;SDS011;58659;49.050;8.530;2024-03-29T04:48:31;0.80;;;0.73;;
70388;SDS011;58659;49.050;8.530;2024-03-29T04:50:57;0.83;;;0.80;;
70388;SDS011;58659;49.050;8.530;2024-03-29T04:53:22;0.60;;;0.60;;
70388;SDS011;58659;49.050;8.530;2024-03-29T04:55:52;0.70;;;0.70;;
70388;SDS011;58659;49.050;8.530;2024-03-29T04:58:18;1.40;;;0.90;;
70388;SDS011;58659;49.050;8.530;2024-03-29T05:00:44;0.83;;;0.73;;
70388;SDS011;58659;49.050;8.530;2024-03-29T05:03:09;1.07;;;0.80;;
70388;SDS011;58659;49.050;8.530;2024-03-29T05:05:34;0.80;;;0.80;;
70388;SDS011;58659;49.050;8.530;2024-03-29T05:07:59;0.70;;;0.70;;
70388;SDS011;58659;49.050;8.530;2024-03-29T05:10:25;0.73;;;0.73;;
70388;SDS011;58659;49.050;8.530;2024-03-29T05:12:50;0.93;;;0.80;;
70388;SDS011;58659;49.050;8.530;2024-03-29T05:15:16;0.77;;;0.77;;
70388;SDS011;58659;49.050;8.530;2024-03-29T05:17:41;0.70;;;0.70;;
70388;SDS011;58659;49.050;8.530;2024-03-29T05:20:07;1.03;;;0.80;;
70388;SDS011;58659;49.050;8.530;2024-03-29T05:22:33;1.23;;;0.80;;
70388;SDS011;58659;49.050;8.530;2024-03-29T05:24:58;0.80;;;0.80;;
70388;SDS011;58659;49.050;8.530;2024-03-29T05:27:24;0.77;;;0.77;;
70388;SDS011;58659;49.050;8.530;2024-03-29T05:29:49;0.70;;;0.70;;
70388;SDS011;58659;49.050;8.530;2024-03-29T05:32:14;2.57;;;0.80;;
70388;SDS011;58659;49.050;8.530;2024-03-29T05:34:40;0.70;;;0.70;;
70388;SDS011;58659;49.050;8.530;2024-03-29T05:37:06;2.33;;;0.70;;
70388;SDS011;58659;49.050;8.530;2024-03-29T05:39:32;0.97;;;0.80;;
70388;SDS011;58659;49.050;8.530;2024-03-29T05:41:58;1.80;;;0.70;;
70388;SDS011;58659;49.050;8.530;2024-03-29T05:44:23;1.80;;;0.70;;
70388;SDS011;58659;49.050;8.530;2024-03-29T05:46:49;0.80;;;0.80;;
70388;SDS011;58659;49.050;8.530;2024-03-29T05:49:14;0.90;;;0.70;;
70388;SDS011;58659;49.050;8.530;2024-03-29T05:51:39;0.80;;;0.80;;
70388;SDS011;58659;49.050;8.530;2024-03-29T05:54:05;1.17;;;0.70;;
70388;SDS011;58659;49.050;8.530;2024-03-29T05:56:30;1.33;;;0.90;;
70388;SDS011;58659;49.050;8.530;2024-03-29T05:58:55;0.70;;;0.60;;
70388;SDS011;58659;49.050;8.530;2024-03-29T06:01:20;2.43;;;0.70;;
70388;SDS011;58659;49.050;8.530;2024-03-29T06:03:48;1.27;;;0.90;;
70388;SDS011;58659;49.050;8.530;2024-03-29T06:06:13;2.20;;;0.90;;
70388;SDS011;58659;49.050;8.530;2024-03-29T06:08:42;1.07;;;0.80;;
70388;SDS011;58659;49.050;8.530;2024-03-29T06:11:08;2.23;;;0.87;;
70388;SDS011;58659;49.050;8.530;2024-03-29T06:13:34;0.73;;;0.73;;
70388;SDS011;58659;49.050;8.530;2024-03-29T06:16:17;0.80;;;0.80;;
70388;SDS011;58659;49.050;8.530;2024-03-29T06:19:01;0.70;;;0.70;;
70388;SDS011;58659;49.050;8.530;2024-03-29T06:21:27;0.80;;;0.77;;
70388;SDS011;58659;49.050;8.530;2024-03-29T06:23:52;0.77;;;0.70;;
70388;SDS011;58659;49.050;8.530;2024-03-29T06:26:17;0.90;;;0.90;;
70388;SDS011;58659;49.050;8.530;2024-03-29T06:28:43;1.00;;;0.93;;
70388;SDS011;58659;49.050;8.530;2024-03-29T06:31:08;1.03;;;0.70;;
70388;SDS011;58659;49.050;8.530;2024-03-29T06:33:33;0.70;;;0.70;;
70388;SDS011;58659;49.050;8.530;2024-03-29T06:35:59;0.80;;;0.80;;
70388;SDS011;58659;49.050;8.530;2024-03-29T06:38:24;0.90;;;0.80;;
70388;SDS011;58659;49.050;8.530;2024-03-29T06:40:49;2.67;;;0.80;;
70388;SDS011;58659;49.050;8.530;2024-03-29T06:43:14;2.30;;;0.70;;
70388;SDS011;58659;49.050;8.530;2024-03-29T06:45:40;1.70;;;0.70;;
70388;SDS011;58659;49.050;8.530;2024-03-29T06:48:09;0.70;;;0.70;;
70388;SDS011;58659;49.050;8.530;2024-03-29T06:50:35;2.20;;;0.70;;
70388;SDS011;58659;49.050;8.530;2024-03-29T06:53:00;0.70;;;0.70;;
70388;SDS011;58659;49.050;8.530;2024-03-29T06:55:26;1.50;;;1.00;;
70388;SDS011;58659;49.050;8.530;2024-03-29T06:57:51;0.70;;;0.70;;
70388;SDS011;58659;49.050;8.530;2024-03-29T07:00:17;1.80;;;0.70;;
70388;SDS011;58659;49.050;8.530;2024-03-29T07:02:42;0.90;;;0.80;;
70388;SDS011;58659;49.050;8.530;2024-03-29T07:05:08;0.70;;;0.70;;
70388;SDS011;58659;49.050;8.530;2024-03-29T07:07:36;1.33;;;0.97;;
70388;SDS011;58659;49.050;8.530;2024-03-29T07:10:02;0.97;;;0.90;;
70388;SDS011;58659;49.050;8.530;2024-03-29T07:12:27;1.13;;;0.90;;
70388;SDS011;58659;49.050;8.530;2024-03-29T07:14:53;0.90;;;0.90;;
70388;SDS011;58659;49.050;8.530;2024-03-29T07:17:18;1.03;;;0.90;;
70388;SDS011;58659;49.050;8.530;2024-03-29T07:19:43;2.33;;;0.80;;
70388;SDS011;58659;49.050;8.530;2024-03-29T07:22:08;2.27;;;0.97;;
70388;SDS011;58659;49.050;8.530;2024-03-29T07:24:34;1.00;;;0.73;;
70388;SDS011;58659;49.050;8.530;2024-03-29T07:26:59;1.07;;;0.80;;
70388;SDS011;58659;49.050;8.530;2024-03-29T07:29:24;1.97;;;1.10;;
70388;SDS011;58659;49.050;8.530;2024-03-29T07:31:50;1.20;;;0.90;;
70388;SDS011;58659;49.050;8.530;2024-03-29T07:34:15;1.10;;;1.00;;
70388;SDS011;58659;49.050;8.530;2024-03-29T07:36:40;2.67;;;1.40;;
70388;SDS011;58659;49.050;8.530;2024-03-29T07:39:06;3.33;;;1.40;;
70388;SDS011;58659;49.050;8.530;2024-03-29T07:41:31;2.27;;;1.47;;
70388;SDS011;58659;49.050;8.530;2024-03-29T07:43:57;2.60;;;1.10;;
70388;SDS011;58659;49.050;8.530;2024-03-29T07:46:28;2.33;;;1.10;;
70388;SDS011;58659;49.050;8.530;2024-03-29T07:48:55;1.60;;;1.10;;
70388;SDS011;58659;49.050;8.530;2024-03-29T07:51:20;2.60;;;1.10;;
70388;SDS011;58659;49.050;8.530;2024-03-29T07:53:46;1.87;;;1.30;;
70388;SDS011;58659;49.050;8.530;2024-03-29T07:56:11;2.00;;;1.10;;
70388;SDS011;58659;49.050;8.530;2024-03-29T07:58:36;1.70;;;1.00;;
70388;SDS011;58659;49.050;8.530;2024-03-29T08:01:02;1.47;;;1.10;;
70388;SDS011;58659;49.050;8.530;2024-03-29T08:03:27;1.13;;;1.03;;
70388;SDS011;58659;49.050;8.530;2024-03-29T08:05:59;2.40;;;1.00;;
70388;SDS011;58659;49.050;8.530;2024-03-29T08:08:25;3.03;;;1.03;;
70388;SDS011;58659;49.050;8.530;2024-03-29T08:10:52;2.97;;;0.93;;
70388;SDS011;58659;49.050;8.530;2024-03-29T08:13:18;1.43;;;1.00;;
70388;SDS011;58659;49.050;8.530;2024-03-29T08:15:45;1.50;;;1.40;;
70388;SDS011;58659;49.050;8.530;2024-03-29T08:18:11;1.37;;;1.00;;
70388;SDS011;58659;49.050;8.530;2024-03-29T08:20:36;2.97;;;1.17;;
70388;SDS011;58659;49.050;8.530;2024-03-29T08:23:03;0.80;;;0.80;;
70388;SDS011;58659;49.050;8.530;2024-03-29T08:25:28;0.60;;;0.60;;
70388;SDS011;58659;49.050;8.530;2024-03-29T08:27:53;0.60;;;0.60;;
70388;SDS011;58659;49.050;8.530;2024-03-29T08:30:23;0.60;;;0.60;;
70388;SDS011;58659;49.050;8.530;2024-03-29T08:32:56;0.77;;;0.77;;
70388;SDS011;58659;49.050;8.530;2024-03-29T08:35:22;0.60;;;0.60;;
70388;SDS011;58659;49.050;8.530;2024-03-29T08:37:47;0.70;;;0.70;;
70388;SDS011;58659;49.050;8.530;2024-03-29T08:40:15;4.43;;;0.90;;
70388;SDS011;58659;49.050;8.530;2024-03-29T08:42:40;0.60;;;0.60;;
70388;SDS011;58659;49.050;8.530;2024-03-29T08:45:06;0.53;;;0.53;;
70388;SDS011;58659;49.050;8.530;2024-03-29T08:47:33;0.57;;;0.57;;
70388;SDS011;58659;49.050;8.530;2024-03-29T08:49:58;0.53;;;0.53;;
70388;SDS011;58659;49.050;8.530;2024-03-29T08:52:24;0.63;;;0.63;;
70388;SDS011;58659;49.050;8.530;2024-03-29T08:54:49;0.50;;;0.50;;
70388;SDS011;58659;49.050;8.530;2024-03-29T08:57:15;1.27;;;1.27;;
70388;SDS011;58659;49.050;8.530;2024-03-29T09:19:06;0.60;;;0.60;;
70388;SDS011;58659;49.050;8.530;2024-03-29T09:21:31;0.60;;;0.60;;
70388;SDS011;58659;49.050;8.530;2024-03-29T09:23:57;0.50;;;0.50;;
70388;SDS011;58659;49.050;8.530;2024-03-29T09:26:22;0.50;;;0.50;;
70388;SDS011;58659;49.050;8.530;2024-03-29T09:28:48;0.60;;;0.60;;
70388;SDS011;58659;49.050;8.530;2024-03-29T09:31:13;0.60;;;0.60;;
70388;SDS011;58659;49.050;8.530;2024-03-29T09:33:38;0.50;;;0.50;;
70388;SDS011;58659;49.050;8.530;2024-03-29T09:36:03;0.60;;;0.60;;
70388;SDS011;58659;49.050;8.530;2024-03-29T09:38:29;0.50;;;0.50;;
70388;SDS011;58659;49.050;8.530;2024-03-29T10:10:30;0.50;;;0.50;;
70388;SDS011;58659;49.050;8.530;2024-03-29T10:12:56;0.60;;;0.60;;
70388;SDS011;58659;49.050;8.530;2024-03-29T10:15:21;0.50;;;0.50;;
70388;SDS011;58659;49.050;8.530;2024-03-29T10:17:49;0.50;;;0.50;;
70388;SDS011;58659;49.050;8.530;2024-03-29T10:20:18;0.50;;;0.50;;
70388;SDS011;58659;49.050;8.530;2024-03-29T10:22:44;0.50;;;0.50;;
70388;SDS011;58659;49.050;8.530;2024-03-29T10:27:36;0.50;;;0.50;;
70388;SDS011;58659;49.050;8.530;2024-03-29T10:30:03;1.00;;;1.00;;
70388;SDS011;58659;49.050;8.530;2024-03-29T10:32:29;0.50;;;0.50;;
70388;SDS011;58659;49.050;8.530;2024-03-29T10:34:55;0.60;;;0.60;;
70388;SDS011;58659;49.050;8.530;2024-03-29T10:37:20;0.50;;;0.50;;
70388;SDS011;58659;49.050;8.530;2024-03-29T10:39:57;0.47;;;0.47;;
70388;SDS011;58659;49.050;8.530;2024-03-29T10:42:23;0.50;;;0.50;;
70388;SDS011;58659;49.050;8.530;2024-03-29T10:44:50;0.50;;;0.50;;
70388;SDS011;58659;49.050;8.530;2024-03-29T10:47:19;0.67;;;0.67;;
70388;SDS011;58659;49.050;8.530;2024-03-29T10:49:49;0.60;;;0.60;;
70388;SDS011;58659;49.050;8.530;2024-03-29T10:52:16;0.53;;;0.53;;
70388;SDS011;58659;49.050;8.530;2024-03-29T10:54:42;4.43;;;0.50;;
70388;SDS011;58659;49.050;8.530;2024-03-29T10:57:12;1.07;;;0.60;;
70388;SDS011;58659;49.050;8.530;2024-03-29T10:59:48;0.80;;;0.70;;
70388;SDS011;58659;49.050;8.530;2024-03-29T11:02:21;0.67;;;0.60;;
70388;SDS011;58659;49.050;8.530;2024-03-29T11:04:52;0.50;;;0.50;;
70388;SDS011;58659;49.050;8.530;2024-03-29T11:07:19;0.90;;;0.70;;
70388;SDS011;58659;49.050;8.530;2024-03-29T11:09:50;0.57;;;0.57;;
70388;SDS011;58659;49.050;8.530;2024-03-29T11:12:20;0.60;;;0.60;;
70388;SDS011;58659;49.050;8.530;2024-03-29T11:14:49;3.73;;;0.73;;
70388;SDS011;58659;49.050;8.530;2024-03-29T11:17:24;1.00;;;0.70;;
70388;SDS011;58659;49.050;8.530;2024-03-29T11:19:49;1.60;;;0.60;;
70388;SDS011;58659;49.050;8.530;2024-03-29T11:22:14;0.63;;;0.60;;
70388;SDS011;58659;49.050;8.530;2024-03-29T11:24:40;0.83;;;0.83;;
70388;SDS011;58659;49.050;8.530;2024-03-29T11:27:07;0.63;;;0.63;;
70388;SDS011;58659;49.050;8.530;2024-03-29T11:29:34;1.90;;;0.67;;
70388;SDS011;58659;49.050;8.530;2024-03-29T11:32:03;0.70;;;0.70;;
70388;SDS011;58659;49.050;8.530;2024-03-29T11:34:33;1.17;;;0.90;;
70388;SDS011;58659;49.050;8.530;2024-03-29T11:37:11;1.70;;;1.00;;
70388;SDS011;58659;49.050;8.530;2024-03-29T11:39:46;2.17;;;0.70;;
70388;SDS011;58659;49.050;8.530;2024-03-29T11:42:12;1.03;;;0.80;;
70388;SDS011;58659;49.050;8.530;2024-03-29T11:44:37;0.60;;;0.60;;
70388;SDS011;58659;49.050;8.530;2024-03-29T11:47:03;0.70;;;0.70;;
70388;SDS011;58659;49.050;8.530;2024-03-29T11:49:32;1.03;;;0.70;;
70388;SDS011;58659;49.050;8.530;2024-03-29T11:52:02;1.13;;;0.73;;
70388;SDS011;58659;49.050;8.530;2024-03-29T11:54:35;2.37;;;0.90;;
70388;SDS011;58659;49.050;8.530;2024-03-29T11:57:01;0.77;;;0.77;;
70388;SDS011;58659;49.050;8.530;2024-03-29T11:59:27;4.07;;;1.03;;
70388;SDS011;58659;49.050;8.530;2024-03-29T12:01:52;1.03;;;0.50;;
70388;SDS011;58659;49.050;8.530;2024-03-29T12:04:21;2.17;;;0.70;;
70388;SDS011;58659;49.050;8.530;2024-03-29T12:06:47;0.70;;;0.70;;
70388;SDS011;58659;49.050;8.530;2024-03-29T12:09:14;0.60;;;0.60;;
70388;SDS011;58659;49.050;8.530;2024-03-29T12:11:39;0.90;;;0.80;;
70388;SDS011;58659;49.050;8.530;2024-03-29T12:14:13;0.73;;;0.73;;
70388;SDS011;58659;49.050;8.530;2024-03-29T12:16:42;1.70;;;0.70;;
70388;SDS011;58659;49.050;8.530;2024-03-29T12:19:21;0.80;;;0.70;;
70388;SDS011;58659;49.050;8.530;2024-03-29T12:21:47;1.23;;;0.83;;
70388;SDS011;58659;49.050;8.530;2024-03-29T12:24:13;1.20;;;0.73;;
70388;SDS011;58659;49.050;8.530;2024-03-29T12:26:38;0.70;;;0.57;;
70388;SDS011;58659;49.050;8.530;2024-03-29T12:29:04;0.70;;;0.70;;
70388;SDS011;58659;49.050;8.530;2024-03-29T12:31:30;0.60;;;0.60;;
70388;SDS011;58659;49.050;8.530;2024-03-29T12:33:55;2.63;;;0.80;;
70388;SDS011;58659;49.050;8.530;2024-03-29T12:36:27;1.60;;;0.90;;
70388;SDS011;58659;49.050;8.530;2024-03-29T12:38:55;1.07;;;0.97;;
70388;SDS011;58659;49.050;8.530;2024-03-29T12:41:23;1.87;;;1.00;;
70388;SDS011;58659;49.050;8.530;2024-03-29T12:43:50;1.80;;;1.03;;
70388;SDS011;58659;49.050;8.530;2024-03-29T12:46:16;1.50;;;0.90;;
70388;SDS011;58659;49.050;8.530;2024-03-29T12:48:42;1.93;;;1.23;;
70388;SDS011;58659;49.050;8.530;2024-03-29T12:51:07;1.10;;;1.00;;
70388;SDS011;58659;49.050;8.530;2024-03-29T12:53:33;2.10;;;1.10;;
70388;SDS011;58659;49.050;8.530;2024-03-29T12:55:58;1.30;;;1.10;;
70388;SDS011;58659;49.050;8.530;2024-03-29T12:58:24;2.20;;;1.30;;
70388;SDS011;58659;49.050;8.530;2024-03-29T13:00:50;2.17;;;1.33;;
70388;SDS011;58659;49.050;8.530;2024-03-29T13:03:15;2.07;;;0.90;;
70388;SDS011;58659;49.050;8.530;2024-03-29T13:05:40;3.40;;;1.10;;
70388;SDS011;58659;49.050;8.530;2024-03-29T13:08:13;2.13;;;1.20;;
70388;SDS011;58659;49.050;8.530;2024-03-29T13:10:42;1.30;;;1.10;;
70388;SDS011;58659;49.050;8.530;2024-03-29T13:13:07;2.50;;;1.00;;
70388;SDS011;58659;49.050;8.530;2024-03-29T13:15:34;1.40;;;1.00;;
70388;SDS011;58659;49.050;8.530;2024-03-29T13:18:00;1.97;;;1.07;;
70388;SDS011;58659;49.050;8.530;2024-03-29T13:20:26;1.00;;;0.90;;
70388;SDS011;58659;49.050;8.530;2024-03-29T13:22:51;1.90;;;1.30;;
70388;SDS011;58659;49.050;8.530;2024-03-29T13:25:19;5.73;;;1.20;;
70388;SDS011;58659;49.050;8.530;2024-03-29T13:27:46;2.30;;;1.40;;
70388;SDS011;58659;49.050;8.530;2024-03-29T13:30:13;1.20;;;1.10;;
70388;SDS011;58659;49.050;8.530;2024-03-29T13:32:40;1.50;;;1.10;;
70388;SDS011;58659;49.050;8.530;2024-03-29T13:35:06;2.80;;;1.30;;
70388;SDS011;58659;49.050;8.530;2024-03-29T13:37:44;2.37;;;1.30;;
70388;SDS011;58659;49.050;8.530;2024-03-29T13:40:13;2.30;;;1.40;;
70388;SDS011;58659;49.050;8.530;2024-03-29T13:42:40;3.10;;;1.50;;
70388;SDS011;58659;49.050;8.530;2024-03-29T13:45:06;4.00;;;1.30;;
70388;SDS011;58659;49.050;8.530;2024-03-29T13:47:33;3.67;;;1.40;;
70388;SDS011;58659;49.050;8.530;2024-03-29T13:50:19;3.00;;;1.03;;
70388;SDS011;58659;49.050;8.530;2024-03-29T13:52:44;1.40;;;1.07;;
70388;SDS011;58659;49.050;8.530;2024-03-29T13:55:10;1.30;;;1.10;;
70388;SDS011;58659;49.050;8.530;2024-03-29T13:57:35;2.73;;;1.10;;
70388;SDS011;58659;49.050;8.530;2024-03-29T14:00:01;4.27;;;1.10;;
70388;SDS011;58659;49.050;8.530;2024-03-29T14:02:28;2.20;;;1.00;;
70388;SDS011;58659;49.050;8.530;2024-03-29T14:04:54;1.40;;;1.00;;
70388;SDS011;58659;49.050;8.530;2024-03-29T14:07:20;1.67;;;1.17;;
70388;SDS011;58659;49.050;8.530;2024-03-29T14:09:49;1.37;;;1.10;;
70388;SDS011;58659;49.050;8.530;2024-03-29T14:12:14;3.53;;;1.40;;
70388;SDS011;58659;49.050;8.530;2024-03-29T14:14:40;1.13;;;1.00;;
70388;SDS011;58659;49.050;8.530;2024-03-29T14:17:09;4.63;;;1.87;;
70388;SDS011;58659;49.050;8.530;2024-03-29T14:19:37;2.87;;;2.10;;
70388;SDS011;58659;49.050;8.530;2024-03-29T14:22:02;3.43;;;1.93;;
70388;SDS011;58659;49.050;8.530;2024-03-29T14:24:29;5.77;;;2.60;;
70388;SDS011;58659;49.050;8.530;2024-03-29T14:27:00;7.00;;;2.80;;
70388;SDS011;58659;49.050;8.530;2024-03-29T14:29:31;5.70;;;2.77;;
70388;SDS011;58659;49.050;8.530;2024-03-29T14:31:57;7.97;;;2.57;;
70388;SDS011;58659;49.050;8.530;2024-03-29T14:34:23;6.57;;;3.10;;
70388;SDS011;58659;49.050;8.530;2024-03-29T14:36:48;4.43;;;2.17;;
70388;SDS011;58659;49.050;8.530;2024-03-29T14:39:15;5.67;;;2.33;;
70388;SDS011;58659;49.050;8.530;2024-03-29T14:41:41;5.50;;;2.70;;
70388;SDS011;58659;49.050;8.530;2024-03-29T14:44:07;3.57;;;2.67;;
70388;SDS011;58659;49.050;8.530;2024-03-29T14:46:32;3.63;;;2.37;;
70388;SDS011;58659;49.050;8.530;2024-03-29T14:49:01;3.93;;;2.30;;
70388;SDS011;58659;49.050;8.530;2024-03-29T14:51:30;5.60;;;3.10;;
70388;SDS011;58659;49.050;8.530;2024-03-29T14:53:59;5.27;;;2.80;;
70388;SDS011;58659;49.050;8.530;2024-03-29T14:56:26;6.97;;;4.30;;
70388;SDS011;58659;49.050;8.530;2024-03-29T14:58:55;5.63;;;3.10;;
70388;SDS011;58659;49.050;8.530;2024-03-29T15:01:20;5.17;;;2.90;;
70388;SDS011;58659;49.050;8.530;2024-03-29T15:03:46;4.47;;;3.07;;
70388;SDS011;58659;49.050;8.530;2024-03-29T15:06:11;6.97;;;3.23;;
70388;SDS011;58659;49.050;8.530;2024-03-29T15:08:36;3.57;;;2.43;;
70388;SDS011;58659;49.050;8.530;2024-03-29T15:11:01;9.03;;;3.00;;
70388;SDS011;58659;49.050;8.530;2024-03-29T15:13:27;5.47;;;2.87;;
70388;SDS011;58659;49.050;8.530;2024-03-29T15:15:57;9.37;;;3.13;;
70388;SDS011;58659;49.050;8.530;2024-03-29T15:18:27;3.63;;;2.80;;
70388;SDS011;58659;49.050;8.530;2024-03-29T15:20:59;5.23;;;2.80;;
70388;SDS011;58659;49.050;8.530;2024-03-29T15:23:27;3.13;;;2.67;;
70388;SDS011;58659;49.050;8.530;2024-03-29T15:25:53;5.40;;;2.67;;
70388;SDS011;58659;49.050;8.530;2024-03-29T15:28:20;3.27;;;2.37;;
70388;SDS011;58659;49.050;8.530;2024-03-29T15:33:42;2.83;;;1.70;;
70388;SDS011;58659;49.050;8.530;2024-03-29T15:36:08;2.10;;;1.80;;
70388;SDS011;58659;49.050;8.530;2024-03-29T15:38:34;5.30;;;2.53;;
70388;SDS011;58659;49.050;8.530;2024-03-29T15:41:00;3.60;;;2.40;;